createdAt,value
2023-03-28T00:00:51.333Z,951.19
2023-03-28T00:01:51.331Z,951.01
2023-03-28T00:02:51.354Z,951.02
2023-03-28T00:03:51.334Z,951.08
2023-03-28T00:04:51.292Z,951.10
2023-03-28T00:05:51.319Z,951.01
2023-03-28T00:06:51.273Z,951.11
2023-03-28T00:07:51.247Z,951.13
2023-03-28T00:08:51.237Z,951.12
2023-03-28T00:09:51.263Z,951.08
2023-03-28T00:10:51.233Z,951.07
2023-03-28T00:11:51.225Z,951.06
2023-03-28T00:12:51.199Z,951.08
2023-03-28T00:13:51.184Z,951.13
2023-03-28T00:14:51.169Z,951.10
2023-03-28T00:15:51.208Z,951.03
2023-03-28T00:16:51.152Z,951.23
2023-03-28T00:17:51.181Z,951.27
2023-03-28T00:18:51.246Z,951.19
2023-03-28T00:19:51.127Z,951.19
2023-03-28T00:20:51.095Z,951.26
2023-03-28T00:21:51.114Z,951.16
2023-03-28T00:22:51.098Z,951.20
2023-03-28T00:23:51.088Z,951.26
2023-03-28T00:24:51.049Z,951.18
2023-03-28T00:25:51.062Z,951.30
2023-03-28T00:26:51.054Z,951.32
2023-03-28T00:27:51.023Z,951.22
2023-03-28T00:28:51.038Z,951.18
2023-03-28T00:29:51.001Z,951.21
2023-03-28T00:30:51.069Z,951.17
2023-03-28T00:31:51.080Z,951.16
2023-03-28T00:32:51.062Z,951.20
2023-03-28T00:33:50.990Z,951.15
2023-03-28T00:34:50.952Z,951.05
2023-03-28T00:35:50.958Z,950.98
2023-03-28T00:36:50.934Z,951.17
2023-03-28T00:37:50.924Z,951.17
2023-03-28T00:38:50.915Z,951.13
2023-03-28T00:39:50.887Z,951.12
2023-03-28T00:40:50.882Z,951.18
2023-03-28T00:41:50.884Z,951.12
2023-03-28T00:42:50.868Z,951.11
2023-03-28T00:43:50.862Z,951.08
2023-03-28T00:44:50.854Z,951.07
2023-03-28T00:45:59.221Z,951.04
2023-03-28T00:46:51.874Z,951.04
2023-03-28T00:47:50.858Z,951.07
2023-03-28T00:48:50.784Z,951.05
2023-03-28T00:49:50.782Z,951.08
2023-03-28T00:50:50.764Z,951.11
2023-03-28T00:51:50.754Z,951.10
2023-03-28T00:52:50.744Z,951.16
2023-03-28T00:53:50.753Z,951.10
2023-03-28T00:54:50.716Z,951.09
2023-03-28T00:55:50.722Z,951.06
2023-03-28T00:56:50.816Z,951.00
2023-03-28T00:57:50.731Z,951.03
2023-03-28T00:58:50.685Z,950.97
2023-03-28T00:59:50.661Z,951.13
2023-03-28T01:00:50.684Z,951.00
2023-03-28T01:01:50.756Z,950.96
2023-03-28T01:02:50.817Z,951.00
2023-03-28T01:03:50.703Z,950.89
2023-03-28T01:04:50.610Z,951.03
2023-03-28T01:05:50.605Z,951.04
2023-03-28T01:06:50.587Z,951.01
2023-03-28T01:07:50.593Z,950.94
2023-03-28T01:08:50.557Z,950.89
2023-03-28T01:09:50.552Z,950.92
2023-03-28T01:10:50.541Z,950.95
2023-03-28T01:11:50.535Z,950.81
2023-03-28T01:12:50.527Z,950.85
2023-03-28T01:13:50.531Z,950.84
2023-03-28T01:14:50.490Z,950.90
2023-03-28T01:15:50.576Z,950.90
2023-03-28T01:16:50.470Z,950.90
2023-03-28T01:17:50.521Z,950.85
2023-03-28T01:18:50.462Z,950.80
2023-03-28T01:19:50.462Z,950.79
2023-03-28T01:20:50.420Z,950.86
2023-03-28T01:21:50.402Z,950.84
2023-03-28T01:22:56.952Z,950.78
2023-03-28T01:23:51.380Z,950.83
2023-03-28T01:24:50.382Z,950.76
2023-03-28T01:25:50.378Z,950.73
2023-03-28T01:26:50.360Z,950.72
2023-03-28T01:27:50.340Z,950.75
2023-03-28T01:28:50.346Z,950.92
2023-03-28T01:29:50.331Z,951.04
2023-03-28T01:30:50.317Z,950.87
2023-03-28T01:31:50.326Z,951.05
2023-03-28T01:32:50.346Z,950.99
2023-03-28T01:33:50.269Z,951.07
2023-03-28T01:34:50.262Z,951.08
2023-03-28T01:35:50.299Z,951.16
2023-03-28T01:36:50.252Z,951.04
2023-03-28T01:37:50.227Z,950.97
2023-03-28T01:38:50.212Z,951.20
2023-03-28T01:39:50.204Z,951.10
2023-03-28T01:40:50.222Z,951.09
2023-03-28T01:41:50.180Z,951.02
2023-03-28T01:42:50.186Z,951.10
2023-03-28T01:43:50.176Z,951.08
2023-03-28T01:44:50.148Z,951.04
2023-03-28T01:45:50.216Z,951.01
2023-03-28T01:46:50.153Z,950.96
2023-03-28T01:47:50.128Z,950.91
2023-03-28T01:48:50.108Z,951.01
2023-03-28T01:49:50.087Z,950.89
2023-03-28T01:50:50.078Z,950.86
2023-03-28T01:51:50.102Z,950.84
2023-03-28T01:52:50.062Z,950.95
2023-03-28T01:53:50.045Z,951.05
2023-03-28T01:54:50.048Z,950.88
2023-03-28T01:55:50.024Z,951.01
2023-03-28T01:56:50.066Z,951.03
2023-03-28T01:57:50.067Z,950.92
2023-03-28T01:58:49.993Z,951.07
2023-03-28T01:59:49.982Z,951.01
2023-03-28T02:00:49.991Z,950.98
2023-03-28T02:01:49.975Z,950.99
2023-03-28T02:02:50.088Z,951.07
2023-03-28T02:03:49.930Z,951.03
2023-03-28T02:04:49.932Z,951.05
2023-03-28T02:05:49.924Z,950.96
2023-03-28T02:06:49.922Z,951.09
2023-03-28T02:07:49.886Z,950.91
2023-03-28T02:08:49.879Z,951.03
2023-03-28T02:09:49.862Z,950.85
2023-03-28T02:10:49.884Z,950.88
2023-03-28T02:11:49.843Z,951.02
2023-03-28T02:12:49.840Z,950.93
2023-03-28T02:13:49.848Z,950.96
2023-03-28T02:14:49.810Z,951.01
2023-03-28T02:15:49.817Z,950.93
2023-03-28T02:16:49.944Z,950.88
2023-03-28T02:17:49.862Z,950.99
2023-03-28T02:18:49.806Z,950.92
2023-03-28T02:19:49.760Z,950.91
2023-03-28T02:20:49.759Z,950.91
2023-03-28T02:21:49.733Z,951.04
2023-03-28T02:22:49.746Z,951.10
2023-03-28T02:23:49.722Z,950.95
2023-03-28T02:24:49.823Z,951.02
2023-03-28T02:25:49.691Z,950.97
2023-03-28T02:26:49.686Z,951.00
2023-03-28T02:27:49.677Z,951.02
2023-03-28T02:28:49.670Z,951.07
2023-03-28T02:29:49.667Z,951.09
2023-03-28T02:30:49.656Z,951.12
2023-03-28T02:31:49.729Z,951.18
2023-03-28T02:32:49.714Z,951.16
2023-03-28T02:33:49.621Z,951.09
2023-03-28T02:34:49.619Z,951.25
2023-03-28T02:35:49.657Z,951.23
2023-03-28T02:36:49.601Z,951.26
2023-03-28T02:37:49.581Z,951.18
2023-03-28T02:38:49.555Z,951.14
2023-03-28T02:39:49.538Z,951.14
2023-03-28T02:40:49.528Z,951.23
2023-03-28T02:41:49.537Z,951.14
2023-03-28T02:42:49.538Z,951.14
2023-03-28T02:43:49.495Z,951.17
2023-03-28T02:44:49.503Z,951.16
2023-03-28T02:45:49.496Z,951.09
2023-03-28T02:46:49.463Z,951.14
2023-03-28T02:47:49.506Z,951.07
2023-03-28T02:48:49.453Z,951.04
2023-03-28T02:49:50.855Z,951.15
2023-03-28T02:50:49.439Z,951.05
2023-03-28T02:51:49.404Z,951.05
2023-03-28T02:52:49.399Z,951.11
2023-03-28T02:53:49.390Z,951.02
2023-03-28T02:54:49.394Z,951.00
2023-03-28T02:55:49.380Z,951.02
2023-03-28T02:56:49.406Z,951.05
2023-03-28T02:57:49.338Z,951.02
2023-03-28T02:58:49.336Z,950.98
2023-03-28T02:59:49.322Z,951.06
2023-03-28T03:00:49.338Z,951.02
2023-03-28T03:01:49.322Z,951.11
2023-03-28T03:02:49.357Z,951.10
2023-03-28T03:03:49.301Z,951.14
2023-03-28T03:04:49.259Z,951.06
2023-03-28T03:05:49.294Z,951.21
2023-03-28T03:06:49.259Z,951.05
2023-03-28T03:07:49.223Z,951.13
2023-03-28T03:08:49.220Z,951.16
2023-03-28T03:09:49.206Z,951.12
2023-03-28T03:10:49.214Z,951.16
2023-03-28T03:11:49.196Z,951.15
2023-03-28T03:12:49.181Z,951.18
2023-03-28T03:13:49.175Z,951.12
2023-03-28T03:14:49.150Z,951.03
2023-03-28T03:15:49.236Z,951.13
2023-03-28T03:16:49.127Z,951.09
2023-03-28T03:17:49.153Z,951.12
2023-03-28T03:18:49.123Z,951.10
2023-03-28T03:19:49.108Z,951.13
2023-03-28T03:20:49.101Z,951.05
2023-03-28T03:21:49.088Z,951.08
2023-03-28T03:22:49.078Z,951.08
2023-03-28T03:23:49.051Z,951.27
2023-03-28T03:24:49.056Z,951.32
2023-03-28T03:25:49.056Z,951.26
2023-03-28T03:26:49.012Z,951.40
2023-03-28T03:27:49.000Z,951.21
2023-03-28T03:28:48.989Z,951.18
2023-03-28T03:29:49.001Z,951.31
2023-03-28T03:30:48.975Z,951.31
2023-03-28T03:31:49.018Z,951.32
2023-03-28T03:32:48.991Z,951.37
2023-03-28T03:33:48.933Z,951.39
2023-03-28T03:34:48.948Z,951.34
2023-03-28T03:35:48.915Z,951.30
2023-03-28T03:36:48.897Z,951.35
2023-03-28T03:37:48.999Z,951.42
2023-03-28T03:38:48.874Z,951.38
2023-03-28T03:39:48.861Z,951.36
2023-03-28T03:40:48.873Z,951.41
2023-03-28T03:41:48.841Z,951.43
2023-03-28T03:42:48.831Z,951.43
2023-03-28T03:43:48.852Z,951.45
2023-03-28T03:44:48.820Z,951.60
2023-03-28T03:45:48.813Z,951.57
2023-03-28T03:46:49.004Z,951.43
2023-03-28T03:47:48.869Z,951.48
2023-03-28T03:48:49.990Z,951.56
2023-03-28T03:49:48.772Z,951.52
2023-03-28T03:50:48.750Z,951.62
2023-03-28T03:51:48.729Z,951.59
2023-03-28T03:52:48.718Z,951.75
2023-03-28T03:53:48.743Z,951.68
2023-03-28T03:54:48.696Z,951.65
2023-03-28T03:55:48.682Z,951.60
2023-03-28T03:56:48.723Z,951.44
2023-03-28T03:57:48.662Z,951.59
2023-03-28T03:58:48.652Z,951.72
2023-03-28T03:59:48.636Z,951.63
2023-03-28T04:00:48.627Z,951.66
2023-03-28T04:01:48.659Z,951.67
2023-03-28T04:02:48.664Z,951.70
2023-03-28T04:03:48.619Z,951.55
2023-03-28T04:04:48.623Z,951.70
2023-03-28T04:05:48.569Z,951.79
2023-03-28T04:06:48.558Z,951.59
2023-03-28T04:07:48.583Z,951.62
2023-03-28T04:08:49.381Z,951.68
2023-03-28T04:09:48.557Z,951.74
2023-03-28T04:10:48.522Z,951.73
2023-03-28T04:11:48.499Z,951.78
2023-03-28T04:12:48.512Z,951.68
2023-03-28T04:13:48.478Z,951.76
2023-03-28T04:14:48.477Z,951.79
2023-03-28T04:15:48.478Z,951.87
2023-03-28T04:16:48.443Z,951.75
2023-03-28T04:17:48.518Z,951.80
2023-03-28T04:18:48.423Z,951.91
2023-03-28T04:19:48.412Z,951.86
2023-03-28T04:20:48.410Z,951.86
2023-03-28T04:21:48.391Z,951.79
2023-03-28T04:22:57.578Z,951.99
2023-03-28T04:23:48.459Z,951.83
2023-03-28T04:24:48.359Z,951.94
2023-03-28T04:25:48.421Z,951.84
2023-03-28T04:26:48.356Z,951.86
2023-03-28T04:27:48.337Z,951.97
2023-03-28T04:28:48.352Z,951.92
2023-03-28T04:29:48.322Z,952.01
2023-03-28T04:30:48.299Z,951.96
2023-03-28T04:31:48.351Z,951.97
2023-03-28T04:32:48.312Z,951.98
2023-03-28T04:33:48.318Z,951.93
2023-03-28T04:34:48.318Z,951.98
2023-03-28T04:35:48.352Z,951.98
2023-03-28T04:36:48.226Z,952.07
2023-03-28T04:37:48.228Z,951.95
2023-03-28T04:38:48.435Z,952.03
2023-03-28T04:39:48.229Z,952.31
2023-03-28T04:40:48.190Z,952.09
2023-03-28T04:41:48.266Z,952.27
2023-03-28T04:42:48.224Z,952.26
2023-03-28T04:43:48.180Z,952.20
2023-03-28T04:44:48.172Z,952.32
2023-03-28T04:45:48.203Z,952.24
2023-03-28T04:46:48.117Z,952.33
2023-03-28T04:47:48.225Z,952.23
2023-03-28T04:48:48.117Z,952.25
2023-03-28T04:49:48.124Z,952.22
2023-03-28T04:50:48.128Z,952.31
2023-03-28T04:51:48.125Z,952.35
2023-03-28T04:52:48.119Z,952.27
2023-03-28T04:53:48.056Z,952.43
2023-03-28T04:54:48.073Z,952.30
2023-03-28T04:55:48.084Z,952.52
2023-03-28T04:56:48.134Z,952.28
2023-03-28T04:57:48.031Z,952.50
2023-03-28T04:58:48.013Z,952.43
2023-03-28T04:59:47.976Z,952.47
2023-03-28T05:00:47.967Z,952.40
2023-03-28T05:01:47.998Z,952.59
2023-03-28T05:02:48.084Z,952.56
2023-03-28T05:03:47.998Z,952.59
2023-03-28T05:04:47.932Z,952.60
2023-03-28T05:05:47.898Z,952.60
2023-03-28T05:06:47.893Z,952.52
2023-03-28T05:07:47.878Z,952.68
2023-03-28T05:08:47.867Z,952.54
2023-03-28T05:09:47.897Z,952.59
2023-03-28T05:10:47.861Z,952.65
2023-03-28T05:11:47.837Z,952.52
2023-03-28T05:12:47.820Z,952.61
2023-03-28T05:13:47.824Z,952.57
2023-03-28T05:14:47.856Z,952.59
2023-03-28T05:15:47.829Z,952.65
2023-03-28T05:16:47.812Z,952.61
2023-03-28T05:17:47.810Z,952.62
2023-03-28T05:18:47.751Z,952.61
2023-03-28T05:19:47.738Z,952.68
2023-03-28T05:20:47.759Z,952.62
2023-03-28T05:21:47.758Z,952.70
2023-03-28T05:22:47.718Z,952.72
2023-03-28T05:23:51.709Z,952.82
2023-03-28T05:24:47.710Z,952.82
2023-03-28T05:25:47.693Z,952.81
2023-03-28T05:26:47.661Z,952.81
2023-03-28T05:27:47.691Z,952.75
2023-03-28T05:28:47.682Z,952.83
2023-03-28T05:29:48.048Z,952.82
2023-03-28T05:30:47.716Z,952.81
2023-03-28T05:31:47.787Z,952.84
2023-03-28T05:32:47.686Z,952.86
2023-03-28T05:33:47.596Z,952.76
2023-03-28T05:34:47.640Z,952.85
2023-03-28T05:35:47.605Z,953.01
2023-03-28T05:36:47.550Z,952.91
2023-03-28T05:37:47.601Z,953.00
2023-03-28T05:38:47.531Z,952.90
2023-03-28T05:39:47.536Z,953.00
2023-03-28T05:40:47.503Z,953.05
2023-03-28T05:41:47.493Z,953.11
2023-03-28T05:42:47.522Z,953.03
2023-03-28T05:43:47.472Z,953.03
2023-03-28T05:44:47.470Z,953.18
2023-03-28T05:45:47.523Z,953.21
2023-03-28T05:46:47.436Z,953.22
2023-03-28T05:47:47.489Z,953.16
2023-03-28T05:48:49.618Z,953.13
2023-03-28T05:49:47.420Z,953.16
2023-03-28T05:50:47.392Z,953.27
2023-03-28T05:51:47.384Z,953.36
2023-03-28T05:52:47.392Z,953.28
2023-03-28T05:53:47.366Z,953.29
2023-03-28T05:54:50.629Z,953.23
2023-03-28T05:55:47.342Z,953.34
2023-03-28T05:56:47.400Z,953.27
2023-03-28T05:57:47.350Z,953.33
2023-03-28T05:58:47.307Z,953.30
2023-03-28T05:59:47.373Z,953.36
2023-03-28T06:00:47.292Z,953.34
2023-03-28T06:01:47.406Z,953.38
2023-03-28T06:02:47.306Z,953.39
2023-03-28T06:03:47.309Z,953.36
2023-03-28T06:04:47.289Z,953.36
2023-03-28T06:05:47.249Z,953.36
2023-03-28T06:06:47.229Z,953.36
2023-03-28T06:07:47.226Z,953.37
2023-03-28T06:08:47.210Z,953.38
2023-03-28T06:09:47.183Z,953.38
2023-03-28T06:10:47.164Z,953.39
2023-03-28T06:11:47.172Z,953.46
2023-03-28T06:12:47.163Z,953.43
2023-03-28T06:13:47.139Z,953.50
2023-03-28T06:14:47.120Z,953.52
2023-03-28T06:15:47.133Z,953.58
2023-03-28T06:16:47.140Z,953.41
2023-03-28T06:17:47.200Z,953.52
2023-03-28T06:18:47.078Z,953.52
2023-03-28T06:19:47.074Z,953.54
2023-03-28T06:20:47.054Z,953.54
2023-03-28T06:21:47.047Z,953.64
2023-03-28T06:22:47.048Z,953.62
2023-03-28T06:23:47.032Z,953.56
2023-03-28T06:24:47.004Z,953.59
2023-03-28T06:25:47.057Z,953.54
2023-03-28T06:26:46.987Z,953.66
2023-03-28T06:27:46.993Z,953.68
2023-03-28T06:28:46.965Z,953.82
2023-03-28T06:29:46.987Z,953.67
2023-03-28T06:30:46.941Z,953.72
2023-03-28T06:31:47.017Z,953.77
2023-03-28T06:32:46.967Z,953.75
2023-03-28T06:33:46.943Z,953.75
2023-03-28T06:34:46.900Z,953.73
2023-03-28T06:35:47.015Z,953.69
2023-03-28T06:36:46.877Z,953.82
2023-03-28T06:37:46.907Z,953.74
2023-03-28T06:38:46.988Z,953.72
2023-03-28T06:39:46.850Z,953.79
2023-03-28T06:40:46.885Z,953.73
2023-03-28T06:41:46.853Z,953.79
2023-03-28T06:42:46.829Z,953.92
2023-03-28T06:43:46.799Z,953.83
2023-03-28T06:44:46.810Z,953.87
2023-03-28T06:45:46.785Z,953.90
2023-03-28T06:46:46.866Z,953.96
2023-03-28T06:47:46.842Z,954.12
2023-03-28T06:48:46.738Z,954.10
2023-03-28T06:49:46.753Z,953.93
2023-03-28T06:50:54.390Z,954.07
2023-03-28T06:51:54.390Z,954.06
2023-03-28T06:52:46.780Z,954.05
2023-03-28T06:53:46.711Z,954.10
2023-03-28T06:54:53.868Z,954.17
2023-03-28T06:55:54.344Z,954.09
2023-03-28T06:56:46.712Z,954.10
2023-03-28T06:57:46.649Z,954.11
2023-03-28T06:58:46.647Z,954.11
2023-03-28T06:59:46.648Z,954.16
2023-03-28T07:00:46.654Z,954.14
2023-03-28T07:01:46.631Z,954.09
2023-03-28T07:02:46.651Z,954.18
2023-03-28T07:03:47.021Z,954.16
2023-03-28T07:04:46.573Z,954.25
2023-03-28T07:05:46.612Z,954.21
2023-03-28T07:06:46.566Z,954.27
2023-03-28T07:07:46.528Z,954.28
2023-03-28T07:08:46.532Z,954.28
2023-03-28T07:09:46.531Z,954.28
2023-03-28T07:10:46.495Z,954.29
2023-03-28T07:11:46.502Z,954.24
2023-03-28T07:12:46.479Z,954.36
2023-03-28T07:13:46.510Z,954.39
2023-03-28T07:14:46.480Z,954.35
2023-03-28T07:15:46.468Z,954.35
2023-03-28T07:16:46.466Z,954.47
2023-03-28T07:17:46.489Z,954.38
2023-03-28T07:18:46.438Z,954.59
2023-03-28T07:19:46.941Z,954.57
2023-03-28T07:20:51.925Z,954.45
2023-03-28T07:21:47.526Z,954.47
2023-03-28T07:22:46.448Z,954.49
2023-03-28T07:23:46.366Z,954.59
2023-03-28T07:24:46.338Z,954.56
2023-03-28T07:25:46.337Z,954.50
2023-03-28T07:26:46.313Z,954.59
2023-03-28T07:27:46.334Z,954.49
2023-03-28T07:28:46.313Z,954.52
2023-03-28T07:29:46.310Z,954.62
2023-03-28T07:30:46.284Z,954.60
2023-03-28T07:31:46.332Z,954.65
2023-03-28T07:33:46.271Z,954.70
2023-03-28T07:34:46.254Z,954.70
2023-03-28T07:35:46.291Z,954.63
2023-03-28T07:36:46.239Z,954.73
2023-03-28T07:37:46.216Z,954.65
2023-03-28T07:38:48.637Z,954.76
2023-03-28T07:39:46.183Z,954.73
2023-03-28T07:40:46.192Z,954.70
2023-03-28T07:41:46.170Z,954.76
2023-03-28T07:42:46.142Z,954.74
2023-03-28T07:43:46.120Z,954.91
2023-03-28T07:44:46.130Z,954.76
2023-03-28T07:45:46.135Z,954.85
2023-03-28T07:46:46.114Z,954.85
2023-03-28T07:47:46.096Z,954.83
2023-03-28T07:48:46.092Z,954.82
2023-03-28T07:49:46.064Z,954.81
2023-03-28T07:50:46.043Z,954.83
2023-03-28T07:51:46.032Z,954.82
2023-03-28T07:52:46.048Z,954.96
2023-03-28T07:53:46.202Z,954.96
2023-03-28T07:54:46.046Z,954.87
2023-03-28T07:55:54.558Z,954.93
2023-03-28T07:56:47.035Z,954.96
2023-03-28T07:57:45.973Z,955.19
2023-03-28T07:58:45.966Z,954.96
2023-03-28T07:59:45.973Z,954.93
2023-03-28T08:00:45.997Z,954.97
2023-03-28T08:01:46.224Z,954.98
2023-03-28T08:02:46.011Z,954.96
2023-03-28T08:03:46.012Z,955.03
2023-03-28T08:04:45.899Z,955.06
2023-03-28T08:05:45.951Z,955.02
2023-03-28T08:06:45.913Z,955.07
2023-03-28T08:07:45.888Z,955.07
2023-03-28T08:08:45.852Z,955.05
2023-03-28T08:09:45.883Z,955.09
2023-03-28T08:10:45.825Z,955.07
2023-03-28T08:11:45.809Z,955.10
2023-03-28T08:12:45.821Z,954.99
2023-03-28T08:13:45.794Z,955.00
2023-03-28T08:14:45.769Z,955.03
2023-03-28T08:15:45.805Z,955.06
2023-03-28T08:16:45.782Z,955.09
2023-03-28T08:17:45.812Z,955.11
2023-03-28T08:18:47.460Z,955.10
2023-03-28T08:19:45.737Z,955.15
2023-03-28T08:20:45.702Z,955.17
2023-03-28T08:21:45.695Z,955.22
2023-03-28T08:22:45.705Z,955.16
2023-03-28T08:23:45.692Z,955.16
2023-03-28T08:24:45.662Z,955.18
2023-03-28T08:25:45.732Z,955.27
2023-03-28T08:26:48.547Z,955.32
2023-03-28T08:27:45.699Z,955.23
2023-03-28T08:28:45.612Z,955.33
2023-03-28T08:29:45.628Z,955.28
2023-03-28T08:30:45.589Z,955.31
2023-03-28T08:31:45.685Z,955.30
2023-03-28T08:32:48.233Z,955.22
2023-03-28T08:33:45.583Z,955.42
2023-03-28T08:34:45.563Z,955.44
2023-03-28T08:35:45.572Z,955.35
2023-03-28T08:36:45.522Z,955.37
2023-03-28T08:37:45.534Z,955.41
2023-03-28T08:38:45.503Z,955.47
2023-03-28T08:39:45.491Z,955.45
2023-03-28T08:40:50.020Z,955.41
2023-03-28T08:41:45.504Z,955.38
2023-03-28T08:42:45.455Z,955.41
2023-03-28T08:43:45.471Z,955.46
2023-03-28T08:44:48.326Z,955.47
2023-03-28T08:45:45.439Z,955.53
2023-03-28T08:46:45.539Z,955.53
2023-03-28T08:47:45.496Z,955.60
2023-03-28T08:48:45.392Z,955.56
2023-03-28T08:49:45.391Z,955.62
2023-03-28T08:50:45.390Z,955.66
2023-03-28T08:51:45.401Z,955.69
2023-03-28T08:52:45.362Z,955.64
2023-03-28T08:53:45.385Z,955.62
2023-03-28T08:54:53.169Z,955.61
2023-03-28T08:55:45.500Z,955.59
2023-03-28T08:56:45.438Z,955.67
2023-03-28T08:57:45.448Z,955.59
2023-03-28T08:58:45.324Z,955.56
2023-03-28T08:59:45.302Z,955.62
2023-03-28T09:00:45.256Z,955.52
2023-03-28T09:01:45.431Z,955.59
2023-03-28T09:02:45.334Z,955.55
2023-03-28T09:03:45.324Z,955.58
2023-03-28T09:06:41.637Z,955.63
2023-03-28T09:07:41.915Z,955.71
2023-03-28T09:08:41.615Z,955.70
2023-03-28T09:09:49.436Z,955.69
2023-03-28T09:10:41.618Z,955.67
2023-03-28T09:13:16.526Z,955.75
2023-03-28T09:14:16.456Z,955.88
2023-03-28T09:15:16.387Z,955.75
2023-03-28T09:16:16.500Z,955.80
2023-03-28T09:17:24.587Z,955.87
2023-03-28T09:18:16.386Z,955.89
2023-03-28T09:20:43.688Z,955.95
2023-03-28T09:21:43.757Z,955.94
2023-03-28T09:22:43.752Z,955.90
2023-03-28T09:23:43.720Z,955.93
2023-03-28T09:24:43.752Z,955.89
2023-03-28T09:25:51.692Z,955.89
2023-03-28T09:26:44.028Z,955.90
2023-03-28T09:27:53.911Z,955.93
2023-03-28T09:30:11.503Z,955.91
2023-03-28T09:31:11.465Z,955.86
2023-03-28T09:42:09.922Z,956.02
2023-03-28T09:43:10.073Z,955.92
2023-03-28T09:44:10.514Z,955.89
2023-03-28T09:45:10.043Z,956.12
2023-03-28T09:46:09.883Z,956.07
2023-03-28T09:47:19.185Z,956.06
2023-03-28T09:48:10.205Z,955.97
2023-03-28T09:49:09.811Z,956.06
2023-03-28T09:50:13.336Z,955.98
2023-03-28T09:51:09.582Z,955.94
2023-03-28T09:52:10.536Z,956.02
2023-03-28T09:53:09.588Z,955.99
2023-03-28T09:54:09.611Z,956.03
2023-03-28T09:55:09.622Z,956.04
2023-03-28T09:56:09.621Z,956.00
2023-03-28T09:57:09.594Z,955.97
2023-03-28T09:58:09.521Z,955.97
2023-03-28T09:59:09.723Z,956.10
2023-03-28T10:00:09.579Z,956.07
2023-03-28T10:01:09.665Z,956.16
2023-03-28T10:03:32.077Z,956.12
2023-03-28T10:04:31.959Z,956.12
2023-03-28T10:05:31.907Z,956.32
2023-03-28T10:06:31.969Z,956.18
2023-03-28T10:07:31.954Z,956.08
2023-03-28T10:08:31.758Z,956.24
2023-03-28T10:09:31.956Z,956.17
2023-03-28T10:10:31.872Z,956.02
2023-03-28T10:11:31.766Z,956.09
2023-03-28T10:12:31.740Z,956.22
2023-03-28T10:13:31.802Z,956.09
2023-03-28T10:14:31.725Z,956.10
2023-03-28T10:15:31.745Z,956.07
2023-03-28T10:16:31.756Z,956.01
2023-03-28T10:23:48.735Z,956.07
2023-03-28T10:24:48.684Z,956.15
2023-03-28T10:25:48.740Z,956.11
2023-03-28T10:26:48.659Z,956.17
2023-03-28T10:27:48.669Z,956.11
2023-03-28T10:28:48.653Z,956.16
2023-03-28T10:29:48.618Z,956.18
2023-03-28T10:30:48.683Z,956.16
2023-03-28T10:31:48.607Z,956.12
2023-03-28T10:32:48.654Z,956.16
2023-03-28T10:33:48.579Z,956.18
2023-03-28T10:34:48.622Z,956.18
2023-03-28T10:35:48.626Z,956.16
2023-03-28T10:36:48.588Z,956.38
2023-03-28T10:37:48.548Z,956.10
2023-03-28T10:38:48.561Z,956.39
2023-03-28T10:39:48.567Z,956.27
2023-03-28T10:40:48.548Z,956.19
2023-03-28T10:41:48.505Z,956.27
2023-03-28T10:42:48.482Z,956.19
2023-03-28T10:43:48.477Z,956.15
2023-03-28T10:44:49.119Z,956.22
2023-03-28T10:45:48.478Z,956.26
2023-03-28T10:46:48.502Z,956.16
2023-03-28T10:47:48.482Z,956.13
2023-03-28T10:48:48.422Z,956.14
2023-03-28T10:49:48.399Z,956.17
2023-03-28T10:50:48.426Z,956.25
2023-03-28T10:51:48.410Z,956.30
2023-03-28T10:52:48.371Z,956.21
2023-03-28T10:53:48.354Z,956.24
2023-03-28T10:54:48.349Z,956.19
2023-03-28T10:55:48.370Z,956.15
2023-03-28T10:56:48.402Z,956.08
2023-03-28T10:57:48.334Z,956.16
2023-03-28T10:58:48.374Z,956.09
2023-03-28T10:59:48.297Z,956.17
2023-03-28T11:00:48.312Z,956.24
2023-03-28T11:01:48.352Z,956.13
2023-03-28T11:02:48.423Z,956.24
2023-03-28T11:03:48.440Z,956.16
2023-03-28T11:04:48.246Z,956.17
2023-03-28T11:06:01.681Z,956.24
2023-03-28T11:06:49.216Z,956.19
2023-03-28T11:07:48.301Z,956.24
2023-03-28T11:08:48.205Z,956.16
2023-03-28T11:09:48.329Z,956.27
2023-03-28T11:10:48.186Z,956.27
2023-03-28T11:11:48.193Z,956.26
2023-03-28T11:12:55.039Z,956.28
2023-03-28T11:13:49.154Z,956.26
2023-03-28T11:14:48.163Z,956.37
2023-03-28T11:15:48.216Z,956.32
2023-03-28T11:16:48.120Z,956.32
2023-03-28T11:17:48.216Z,956.29
2023-03-28T11:18:48.085Z,956.24
2023-03-28T11:19:48.095Z,956.22
2023-03-28T11:20:48.058Z,956.30
2023-03-28T11:21:48.042Z,956.21
2023-03-28T11:23:02.747Z,956.25
2023-03-28T11:23:49.082Z,956.34
2023-03-28T11:24:48.056Z,956.31
2023-03-28T11:25:47.990Z,956.31
2023-03-28T11:26:47.997Z,956.49
2023-03-28T11:27:47.996Z,956.31
2023-03-28T11:28:48.004Z,956.43
2023-03-28T11:29:47.978Z,956.54
2023-03-28T11:30:47.928Z,956.27
2023-03-28T11:31:48.059Z,956.26
2023-03-28T11:32:47.946Z,956.27
2023-03-28T11:33:47.915Z,956.18
2023-03-28T11:34:47.887Z,956.16
2023-03-28T11:35:47.963Z,956.20
2023-03-28T11:36:47.881Z,956.25
2023-03-28T11:37:47.846Z,956.26
2023-03-28T11:38:47.846Z,956.36
2023-03-28T11:39:47.870Z,956.23
2023-03-28T11:40:47.832Z,956.26
2023-03-28T11:41:47.938Z,956.20
2023-03-28T11:42:47.796Z,956.33
2023-03-28T11:43:47.819Z,956.30
2023-03-28T11:44:47.798Z,956.33
2023-03-28T11:45:52.133Z,956.39
2023-03-28T11:46:48.859Z,956.33
2023-03-28T11:47:47.816Z,956.20
2023-03-28T11:48:47.762Z,956.26
2023-03-28T11:49:47.710Z,956.28
2023-03-28T11:50:47.751Z,956.21
2023-03-28T11:51:47.694Z,956.20
2023-03-28T11:52:47.674Z,956.22
2023-03-28T11:53:47.666Z,956.32
2023-03-28T11:54:47.689Z,956.42
2023-03-28T11:55:47.665Z,956.30
2023-03-28T11:56:47.640Z,956.26
2023-03-28T11:57:47.633Z,956.21
2023-03-28T11:58:47.610Z,956.33
2023-03-28T11:59:47.620Z,956.29
2023-03-28T12:00:47.640Z,956.26
2023-03-28T12:01:47.584Z,956.33
2023-03-28T12:02:47.655Z,956.24
2023-03-28T12:03:47.637Z,956.22
2023-03-28T12:04:47.543Z,956.36
2023-03-28T12:05:47.551Z,956.24
2023-03-28T12:06:59.634Z,956.25
2023-03-28T12:07:48.510Z,956.33
2023-03-28T12:08:47.517Z,956.25
2023-03-28T12:09:47.515Z,956.37
2023-03-28T12:10:47.496Z,956.26
2023-03-28T12:11:47.462Z,956.41
2023-03-28T12:12:47.464Z,956.43
2023-03-28T12:13:55.439Z,956.31
2023-03-28T12:14:48.432Z,956.41
2023-03-28T12:15:47.448Z,956.33
2023-03-28T12:16:47.501Z,956.38
2023-03-28T12:17:47.431Z,956.38
2023-03-28T12:18:47.407Z,956.40
2023-03-28T12:19:47.466Z,956.38
2023-03-28T12:20:47.363Z,956.29
2023-03-28T12:21:47.357Z,956.31
2023-03-28T12:22:47.371Z,956.27
2023-03-28T12:23:47.341Z,956.20
2023-03-28T12:24:47.320Z,956.30
2023-03-28T12:25:47.330Z,956.32
2023-03-28T12:26:47.376Z,956.29
2023-03-28T12:27:47.289Z,956.31
2023-03-28T12:28:47.273Z,956.33
2023-03-28T12:29:47.282Z,956.30
2023-03-28T12:30:47.266Z,956.31
2023-03-28T12:31:47.269Z,956.31
2023-03-28T12:32:47.229Z,956.28
2023-03-28T12:33:47.221Z,956.36
2023-03-28T12:34:47.227Z,956.26
2023-03-28T12:35:47.233Z,956.20
2023-03-28T12:36:47.192Z,956.31
2023-03-28T12:37:47.189Z,956.28
2023-03-28T12:38:47.160Z,956.31
2023-03-28T12:39:47.178Z,956.27
2023-03-28T12:40:47.160Z,956.33
2023-03-28T12:41:47.129Z,956.26
2023-03-28T12:42:47.110Z,956.25
2023-03-28T12:43:47.095Z,956.21
2023-03-28T12:44:47.119Z,956.42
2023-03-28T12:45:47.142Z,956.27
2023-03-28T12:46:47.062Z,956.35
2023-03-28T12:47:47.114Z,956.22
2023-03-28T12:48:47.044Z,956.27
2023-03-28T12:49:47.025Z,956.31
2023-03-28T12:50:47.060Z,956.31
2023-03-28T12:51:47.008Z,956.31
2023-03-28T12:52:47.000Z,956.34
2023-03-28T12:53:46.989Z,956.32